»·PEaware :: N143VT KOLM-KGEG

N143VT :: KOLM-KGEG

FLIGHT INFORMATION

Flight Status: Arrived
Operator: Privately registered:
United States
More flights under this callsign
Pilot: Anonymous 16492 (16492)
Aircraft: Unknown
(EPIC)
More flights by this aircraft type
Origin: KOLM Olympia
United States
Destination: KGEG Spokane Intl
United States
More flights between these airports :: More routes between these airports
Route: YELM4 SEA V120 EPH ZOOMR1
File this flight plan on PilotEdge
Remarks:
Altitude:
(Current/Filed)
23,000ft
Speed:
(Current/Filed)
330kts
Departed: 26-Jun-18 06:38 PM
Arrived: 26-Jun-18 07:34 PM
Distance/Time
Traveled:
222nm/0:56
Distance/Time
To Go:
Arrived

Flight Plot

Page will automatically refresh every two minutes.

Flight plan parsing failed; only flown route is shown


Map Options




Map Legend


Flown Route
Filed Route
Departure Airport
Arrival Airport
Navaid (VOR, NDB)
Fix

Horizontal Profiles

Position Reports

Time Latitude Longitude Heading Altitude Ground
Speed
26-Jun-18 18:20 46.973873 -122.897021 142 212ft 0kts
26-Jun-18 18:21 46.973873 -122.897021 142 212ft 0kts
26-Jun-18 18:22 46.973873 -122.897021 142 212ft 0kts
26-Jun-18 18:23 46.973873 -122.897021 142 212ft 0kts
26-Jun-18 18:24 46.973873 -122.897021 142 212ft 0kts
26-Jun-18 18:25 46.973873 -122.897021 142 212ft 0kts
26-Jun-18 18:26 46.973873 -122.897021 142 212ft 0kts
26-Jun-18 18:27 46.973873 -122.897021 142 212ft 0kts
26-Jun-18 18:28 46.973873 -122.897021 142 212ft 0kts
26-Jun-18 18:29 46.973873 -122.897021 142 212ft 0kts
26-Jun-18 18:30 46.973873 -122.897021 142 212ft 0kts
26-Jun-18 18:31 46.973873 -122.897021 142 212ft 0kts
26-Jun-18 18:32 46.970876 -122.898941 227 212ft 13kts
26-Jun-18 18:33 46.970640 -122.899311 226 212ft 0kts
26-Jun-18 18:34 46.968613 -122.900639 190 212ft 20kts
26-Jun-18 18:35 46.963509 -122.903354 273 212ft 17kts
26-Jun-18 18:36 46.961458 -122.905595 278 212ft 0kts
26-Jun-18 18:37 46.961664 -122.906446 333 212ft 11kts
26-Jun-18 18:38 46.986280 -122.895379 47 969ft 172kts
26-Jun-18 18:39 46.996199 -122.829959 79 2989ft 182kts
26-Jun-18 18:40 47.005101 -122.752682 79 2984ft 200kts
26-Jun-18 18:41 47.040249 -122.700398 14 4188ft 205kts
26-Jun-18 18:42 47.092574 -122.675817 14 7375ft 208kts
26-Jun-18 18:43 47.140641 -122.627986 31 10273ft 222kts
26-Jun-18 18:44 47.189427 -122.575717 31 12399ft 232kts
26-Jun-18 18:45 47.238219 -122.523169 30 14093ft 238kts
26-Jun-18 18:46 47.289466 -122.467871 29 15621ft 245kts
26-Jun-18 18:47 47.342534 -122.410466 28 16998ft 251kts
26-Jun-18 18:48 47.397318 -122.351049 28 18242ft 257kts
26-Jun-18 18:49 47.431822 -122.264696 82 19296ft 286kts
26-Jun-18 18:50 47.433633 -122.151472 87 20209ft 294kts
26-Jun-18 18:51 47.432834 -122.030306 87 21081ft 300kts
26-Jun-18 18:52 47.431571 -121.907120 87 21865ft 306kts
26-Jun-18 18:53 47.430262 -121.781226 87 22575ft 311kts
26-Jun-18 18:54 47.428657 -121.652773 88 22994ft 324kts
26-Jun-18 18:55 47.426687 -121.517202 88 22996ft 342kts
26-Jun-18 18:56 47.424584 -121.383181 88 23200ft 339kts
26-Jun-18 18:57 47.422230 -121.243755 89 23135ft 351kts
26-Jun-18 18:58 47.419626 -121.099356 89 23109ft 355kts
26-Jun-18 18:59 47.416807 -120.953620 90 23110ft 358kts
26-Jun-18 19:00 47.413831 -120.810221 90 23111ft 361kts
26-Jun-18 19:01 47.410657 -120.662941 90 23108ft 362kts
26-Jun-18 19:02 47.407286 -120.515824 90 23093ft 363kts
26-Jun-18 19:03 47.403716 -120.367802 90 23087ft 363kts
26-Jun-18 19:04 47.399993 -120.221556 90 23080ft 362kts
26-Jun-18 19:05 47.396315 -120.074508 90 23081ft 362kts
26-Jun-18 19:06 47.392456 -119.926801 90 23083ft 362kts
26-Jun-18 19:07 47.388437 -119.779695 90 23084ft 362kts
26-Jun-18 19:08 47.384221 -119.632355 90 23085ft 363kts
26-Jun-18 19:09 47.379664 -119.480073 91 21709ft 382kts
26-Jun-18 19:10 47.382610 -119.327836 85 20282ft 384kts
26-Jun-18 19:11 47.389637 -119.172268 85 18783ft 381kts
26-Jun-18 19:12 47.396549 -119.017423 85 17281ft 376kts
26-Jun-18 19:13 47.403067 -118.866852 85 15788ft 362kts
26-Jun-18 19:14 47.409189 -118.721597 85 14301ft 352kts
26-Jun-18 19:15 47.414960 -118.580082 84 12816ft 343kts
26-Jun-18 19:16 47.420466 -118.441443 85 11329ft 336kts
26-Jun-18 19:17 47.426330 -118.313735 75 10990ft 304kts
26-Jun-18 19:18 47.449415 -118.195052 72 10143ft 311kts
26-Jun-18 19:19 47.473692 -118.076387 72 8640ft 297kts
26-Jun-18 19:20 47.497596 -117.961044 72 7143ft 293kts
26-Jun-18 19:21 47.521764 -117.847193 72 5649ft 290kts
26-Jun-18 19:22 47.545452 -117.737439 72 5009ft 276kts
26-Jun-18 19:23 47.568558 -117.630528 71 5009ft 272kts
26-Jun-18 19:24 47.591403 -117.524782 71 5005ft 271kts
26-Jun-18 19:25 47.614218 -117.418629 71 4997ft 271kts
26-Jun-18 19:26 47.636948 -117.312408 72 4990ft 271kts
26-Jun-18 19:27 47.688459 -117.254243 333 4978ft 231kts
26-Jun-18 19:28 47.728549 -117.307640 314 4308ft 187kts
26-Jun-18 19:29 47.731046 -117.371611 233 3999ft 175kts
26-Jun-18 19:30 47.697691 -117.418245 226 3992ft 160kts
26-Jun-18 19:31 47.669519 -117.460518 226 3477ft 126kts
26-Jun-18 19:32 47.646372 -117.495435 225 2840ft 105kts
26-Jun-18 19:33 47.627378 -117.524024 226 2388ft 74kts
26-Jun-18 19:34 47.620680 -117.531819 134 2388ft 0kts
26-Jun-18 19:35 47.620680 -117.531819 134 2388ft 0kts
26-Jun-18 19:36 47.621956 -117.528788 44 2388ft 23kts
26-Jun-18 19:37 47.623374 -117.524681 305 2388ft 0kts

Navigation Log

Ident Type
Flight plan parsing failed, navigation log unavailable